Observations for WELLINGTON INTL, New Zealand (NZWN)

NZWN 202000Z AUTO 03013KT 9999 OVC017/// 21/16 Q1016 NOSIG  
NZWN 201930Z AUTO 03013KT 9999 BKN016/// 20/16 Q1016 NOSIG  
NZWN 201900Z AUTO 02011KT 9999 OVC017/// 20/16 Q1016 NOSIG  
NZWN 201830Z AUTO 02011KT 9999 OVC016/// 19/16 Q1016 NOSIG  
NZWN 201800Z AUTO 02012KT 9999 OVC016/// 19/16 Q1015 NOSIG  
NZWN 201730Z AUTO 03011KT 9999 BKN016/// 19/16 Q1015 NOSIG  
NZWN 201700Z AUTO 03012KT 9999 BKN018/// OVC025/// 19/16 Q1015 NOSIG
NZWN 201630Z AUTO 02015KT 9999 SCT019/// BKN070/// 19/16 Q1015 NOSIG
NZWN 201600Z AUTO 01016KT 9999 SCT020/// OVC070/// 19/16 Q1015 NOSIG
NZWN 201530Z AUTO 01013KT 9999 FEW019/// BKN070/// 19/16 Q1015 NOSIG
NZWN 201500Z AUTO 01013KT 9999 FEW020/// 19/16 Q1016 TEMPO BKN014   
NZWN 201430Z AUTO 02013KT 9999 FEW020/// 19/16 Q1015 TEMPO BKN014   
NZWN 201400Z AUTO 02011KT 9999 BKN019/// 20/16 Q1015 TEMPO BKN014   
NZWN 201330Z AUTO 03012KT 9999 OVC018/// 20/16 Q1015 TEMPO BKN014   
NZWN 201300Z AUTO 03010KT 9999 OVC017/// 20/16 Q1016 TEMPO BKN014   
NZWN 201230Z AUTO 03013KT 9999 BKN016/// 20/16 Q1016 TEMPO BKN014   
NZWN 201200Z AUTO 02011KT 9999 OVC016/// 20/16 Q1016 TEMPO BKN014   
NZWN 201130Z AUTO 02012KT 9999 BKN017/// 20/16 Q1016 TEMPO BKN014   
NZWN 201100Z AUTO 03012KT 9999 BKN017/// 20/16 Q1015 TEMPO BKN014   
NZWN 201030Z AUTO 02012KT 9999 BKN018/// 20/16 Q1015 TEMPO BKN014   
NZWN 201000Z AUTO 03013KT 9999 BKN016/// 20/16 Q1015 TEMPO BKN014   
NZWN 200930Z AUTO 02013KT 9999 BKN016/// 20/16 Q1015 NOSIG  
NZWN 200900Z AUTO 02015KT 9999 SCT016/// 20/16 Q1015 NOSIG  
NZWN 200830Z AUTO 02015KT 9999 SCT017/// 20/16 Q1015 NOSIG  
NZWN 200800Z AUTO 02016KT 9999 FEW018/// 20/16 Q1015 NOSIG  
NZWN 200730Z AUTO 02017KT 9999 SCT018/// 20/16 Q1014 NOSIG  
NZWN 200700Z AUTO 02016KT 9999 SCT019/// SCT024/// 20/16 Q1014 NOSIG
NZWN 200630Z AUTO 02017KT 9999 SCT020/// 21/16 Q1014 NOSIG  
NZWN 200600Z AUTO 02017KT 9999 SCT020/// 21/16 Q1014 NOSIG  
NZWN 200530Z AUTO 01018KT 9999 SCT021/// 21/16 Q1014 NOSIG  
NZWN 200500Z AUTO 01018KT 9999 BKN020/// 22/16 Q1014 NOSIG  
NZWN 200430Z AUTO 01020KT 9999 BKN021/// 22/16 Q1014 NOSIG  
NZWN 200400Z AUTO 01019KT 9999 BKN022/// 22/16 Q1014 NOSIG  
NZWN 200330Z AUTO 01021KT 9999 BKN022/// 22/16 Q1014 NOSIG  
NZWN 200300Z AUTO 01019KT 9999 BKN022/// 22/16 Q1014 NOSIG  
NZWN 200230Z AUTO 36019KT 9999 BKN021/// 22/16 Q1014 NOSIG  
NZWN 200200Z AUTO 01020KT 9999 BKN022/// 22/16 Q1014 NOSIG  
NZWN 200130Z AUTO 36019G29KT 9999 BKN021/// 23/16 Q1014 NOSIG   
NZWN 200100Z AUTO 36022KT 9999 BKN020/// 23/16 Q1013 NOSIG  
NZWN 200030Z AUTO 36021KT 9999 FEW021/// 23/16 Q1013 NOSIG  
NZWN 200000Z AUTO 36020KT 9999 SCT021/// 23/16 Q1013 NOSIG  
NZWN 192330Z AUTO 35017KT 9999 FEW020/// 21/15 Q1012 NOSIG  
NZWN 192300Z AUTO 36019KT 9999 FEW024/// 22/16 Q1012 NOSIG  
NZWN 192230Z AUTO 34018KT 310V010 9999 NCD 22/14 Q1012 NOSIG
NZWN 192200Z AUTO 34017G27KT 9999 NCD 21/14 Q1012 NOSIG 
NZWN 192130Z AUTO 35017KT 9999 FEW017/// 20/16 Q1012 NOSIG  
NZWN 192100Z AUTO 36018KT 9999 BKN018/// 20/15 Q1012 NOSIG  
NZWN 192030Z AUTO 35019KT 9999 BKN020/// 19/15 Q1012 NOSIG  
NZWN 192000Z AUTO 01021KT 9999 BKN019/// OVC024/// 19/15 Q1012 NOSIG
NZWN 191930Z AUTO 36019G30KT 9999 BKN019/// 19/15 Q1011 NOSIG